Time;durP1;ratioP1;P1;durP2;ratioP2;P2;SDS_P1;SDS_P2;PMS_P1;PMS_P2;Temp;Humidity;BMP_temperature;BMP_pressure;BME280_temperature;BME280_humidity;BME280_pressure;Samples;Min_cycle;Max_cycle;Signal;HPM_P1;HPM_P2
2022/09/08 00:03:14;;;;;;;25.48;18.15;;;;;;;16.05;100.00;96258.22;10373676;28;20211;-73
2022/09/08 00:08:15;;;;;;;25.17;17.75;;;;;;;16.13;100.00;96251.91;10372708;28;20565;-73
2022/09/08 00:13:16;;;;;;;21.58;17.00;;;;;;;16.16;100.00;96254.94;10355928;28;20220;-74
2022/09/08 00:18:17;;;;;;;22.63;15.95;;;;;;;16.10;100.00;96254.97;10355500;28;20658;-73
2022/09/08 00:23:17;;;;;;;26.42;16.90;;;;;;;16.02;100.00;96255.97;10372761;28;20197;-72
2022/09/08 00:28:17;;;;;;;21.23;16.48;;;;;;;16.09;100.00;96253.31;10371716;28;20287;-73
2022/09/08 00:33:18;;;;;;;27.50;18.00;;;;;;;16.03;100.00;96253.13;10372417;28;20323;-73
2022/09/08 00:38:19;;;;;;;24.85;18.60;;;;;;;16.10;100.00;96250.47;10370380;28;20254;-75
2022/09/08 00:43:35;;;;;;;23.02;18.08;;;;;;;16.09;100.00;96229.53;10372065;28;20203;-73
2022/09/08 00:48:41;;;;;;;20.38;17.67;;;;;;;16.04;100.00;96222.22;10371695;28;20185;-73
2022/09/08 00:53:42;;;;;;;23.65;16.17;;;;;;;16.02;100.00;96211.06;10354225;28;20649;-73
2022/09/08 00:58:43;;;;;;;21.92;17.13;;;;;;;15.96;100.00;96196.00;10353627;28;20272;-73
2022/09/08 01:03:43;;;;;;;19.65;15.77;;;;;;;16.00;100.00;96198.03;10370778;28;20229;-73
2022/09/08 01:14:15;;;;;;;17.65;15.77;;;;;;;15.69;100.00;96209.97;10350958;28;20249;-74
2022/09/08 01:19:18;;;;;;;24.23;17.80;;;;;;;15.75;100.00;96216.28;10370732;28;20279;-73
2022/09/08 01:24:36;;;;;;;23.10;19.48;;;;;;;15.85;100.00;96218.56;10370122;28;20220;-73
2022/09/08 01:29:39;;;;;;;31.42;19.73;;;;;;;15.84;100.00;96212.44;10369941;28;20284;-73
2022/09/08 01:34:41;;;;;;;26.13;20.17;;;;;;;15.98;100.00;96213.25;10352569;28;20231;-73
2022/09/08 01:39:42;;;;;;;27.00;21.90;;;;;;;15.97;100.00;96205.53;10352727;28;20189;-74
2022/09/08 01:44:45;;;;;;;31.55;22.25;;;;;;;16.03;100.00;96195.00;10369939;28;20305;-72
2022/09/08 01:49:45;;;;;;;27.15;19.42;;;;;;;16.16;100.00;96194.16;10369775;28;20284;-73
2022/09/08 01:54:46;;;;;;;27.02;19.90;;;;;;;16.17;100.00;96187.03;10369438;28;21288;-74
2022/09/08 01:59:46;;;;;;;21.98;18.98;;;;;;;16.12;100.00;96173.63;10369148;28;20725;-73
2022/09/08 02:04:46;;;;;;;26.70;19.42;;;;;;;16.06;100.00;96167.34;10369284;28;20654;-73
2022/09/08 02:09:47;;;;;;;24.42;19.48;;;;;;;16.14;100.00;96155.75;10368955;28;20189;-73
2022/09/08 02:14:47;;;;;;;27.30;18.00;;;;;;;16.17;100.00;96152.69;10369158;28;20220;-73
2022/09/08 02:19:47;;;;;;;24.55;18.40;;;;;;;16.10;100.00;96149.25;10327614;28;20206;-74
2022/09/08 02:24:48;;;;;;;31.05;19.15;;;;;;;16.07;100.00;96147.03;10328190;28;20192;-74
2022/09/08 02:29:49;;;;;;;22.63;16.67;;;;;;;16.09;100.00;96160.84;10327279;28;20803;-73
2022/09/08 02:34:50;;;;;;;21.13;16.80;;;;;;;16.04;100.00;96154.31;10327187;28;20730;-74
2022/09/08 02:39:50;;;;;;;19.15;16.77;;;;;;;16.09;100.00;96142.34;10327515;28;20198;-73
2022/09/08 02:44:50;;;;;;;21.45;15.48;;;;;;;16.07;100.00;96125.88;10327879;28;20659;-73
2022/09/08 02:49:51;;;;;;;23.50;15.68;;;;;;;15.99;100.00;96125.06;10327534;28;20713;-73
2022/09/08 02:54:51;;;;;;;17.25;14.18;;;;;;;16.04;100.00;96119.19;10334066;28;21069;-74
2022/09/08 02:59:52;;;;;;;20.45;13.80;;;;;;;16.00;100.00;96124.06;10335407;28;20236;-74
2022/09/08 03:04:52;;;;;;;21.67;15.20;;;;;;;15.90;100.00;96118.38;10357956;28;20189;-74
2022/09/08 03:09:53;;;;;;;20.55;15.40;;;;;;;15.85;100.00;96121.63;10372208;28;20208;-73
2022/09/08 03:14:54;;;;;;;16.77;14.88;;;;;;;15.88;100.00;96109.88;10371894;28;20312;-73
2022/09/08 03:19:55;;;;;;;20.40;13.57;;;;;;;15.91;100.00;96098.88;10371772;28;20696;-73
2022/09/08 03:24:56;;;;;;;15.65;13.00;;;;;;;15.94;100.00;96098.47;10371503;28;20271;-73
2022/09/08 03:29:56;;;;;;;15.95;12.68;;;;;;;15.90;100.00;96089.31;10370965;28;20665;-73
2022/09/08 03:34:56;;;;;;;22.08;12.90;;;;;;;15.86;100.00;96085.47;10370927;28;20765;-73
2022/09/08 03:39:57;;;;;;;14.50;13.00;;;;;;;15.79;100.00;96077.56;10370641;28;20687;-72
2022/09/08 03:44:57;;;;;;;16.13;11.93;;;;;;;15.78;100.00;96089.13;10371223;28;20527;-73
2022/09/08 03:49:58;;;;;;;16.38;11.80;;;;;;;15.79;100.00;96074.91;10370547;28;20651;-73
2022/09/08 03:54:59;;;;;;;16.08;11.80;;;;;;;15.80;100.00;96070.44;10369904;28;20221;-74
2022/09/08 03:59:59;;;;;;;11.93;10.63;;;;;;;15.81;100.00;96062.31;10369363;28;20244;-73
2022/09/08 04:05:00;;;;;;;12.98;9.57;;;;;;;15.84;100.00;96061.09;10370885;28;20531;-73
2022/09/08 04:10:02;;;;;;;18.45;10.18;;;;;;;15.94;100.00;96035.06;10373113;28;20562;-73
2022/09/08 04:15:02;;;;;;;12.05;9.15;;;;;;;15.98;100.00;96041.53;10372216;28;20338;-73
2022/09/08 04:20:03;;;;;;;11.60;9.18;;;;;;;16.03;100.00;96028.53;10372593;28;20740;-73
2022/09/08 04:25:03;;;;;;;11.82;10.00;;;;;;;15.92;100.00;96031.00;10372756;28;20215;-73
2022/09/08 04:30:04;;;;;;;10.23;8.95;;;;;;;15.99;100.00;96032.59;10372607;28;20185;-73
2022/09/08 04:35:05;;;;;;;11.68;9.07;;;;;;;15.98;100.00;96022.25;10372080;28;20228;-74
2022/09/08 04:40:07;;;;;;;15.65;9.52;;;;;;;16.02;100.00;96020.81;10372105;28;20196;-73
2022/09/08 04:45:07;;;;;;;14.70;9.50;;;;;;;16.03;100.00;96020.63;10372718;28;20184;-73
2022/09/08 04:50:08;;;;;;;18.05;9.23;;;;;;;16.05;100.00;96007.19;10372615;28;20208;-73
2022/09/08 04:55:10;;;;;;;11.02;8.32;;;;;;;16.08;100.00;96013.88;10375374;28;20308;-73
2022/09/08 05:00:12;;;;;;;14.50;7.93;;;;;;;16.04;100.00;96024.88;10376790;28;20229;-73
2022/09/08 05:05:13;;;;;;;9.73;8.57;;;;;;;15.99;100.00;96019.41;10355633;28;20190;-72
2022/09/08 05:10:13;;;;;;;12.10;8.65;;;;;;;16.01;100.00;96020.00;10359640;28;20197;-73
2022/09/08 05:15:13;;;;;;;12.00;8.73;;;;;;;16.13;100.00;96011.44;10376872;28;20258;-73
2022/09/08 05:20:14;;;;;;;13.48;9.07;;;;;;;16.29;100.00;96010.16;10372211;28;20271;-74
2022/09/08 05:25:14;;;;;;;12.93;8.70;;;;;;;16.30;100.00;95991.44;10370696;28;20318;-73
2022/09/08 05:30:15;;;;;;;10.27;8.05;;;;;;;16.35;100.00;95982.88;10359636;28;20366;-74
2022/09/08 05:35:15;;;;;;;14.15;7.65;;;;;;;16.56;100.00;95971.97;10359573;28;20217;-73
2022/09/08 05:40:16;;;;;;;12.25;8.20;;;;;;;16.64;100.00;95972.75;10352087;28;20540;-73
2022/09/08 05:45:16;;;;;;;11.18;7.38;;;;;;;16.69;100.00;95973.75;10359119;28;20200;-73
2022/09/08 05:50:16;;;;;;;14.32;6.72;;;;;;;16.84;100.00;95978.72;10351511;28;20245;-73
2022/09/08 05:55:17;;;;;;;13.38;7.22;;;;;;;17.02;100.00;95982.50;10359309;28;20760;-73
2022/09/08 06:00:17;;;;;;;9.32;7.35;;;;;;;17.05;100.00;95982.88;10369199;28;20852;-73
2022/09/08 06:05:19;;;;;;;8.45;6.60;;;;;;;17.11;100.00;95971.44;10367503;28;20550;-73
2022/09/08 06:10:20;;;;;;;10.73;7.03;;;;;;;17.13;100.00;95967.75;10366229;28;20193;-73
2022/09/08 06:15:20;;;;;;;8.35;7.03;;;;;;;17.16;100.00;95970.78;10359485;28;20225;-74
2022/09/08 06:20:21;;;;;;;13.73;7.38;;;;;;;17.52;100.00;95963.97;10360978;28;20701;-73
2022/09/08 06:25:21;;;;;;;18.48;9.40;;;;;;;17.78;100.00;95976.13;10361091;28;20654;-73
2022/09/08 06:30:21;;;;;;;19.25;9.10;;;;;;;17.70;100.00;95965.00;10366055;28;20798;-73
2022/09/08 06:35:23;;;;;;;27.88;9.75;;;;;;;17.89;100.00;95960.56;10366667;28;20765;-72
2022/09/08 06:40:33;;;;;;;20.85;9.07;;;;;;;18.39;100.00;95952.38;10348830;28;20190;-72
2022/09/08 06:45:36;;;;;;;16.55;7.63;;;;;;;18.81;100.00;95951.59;10354987;28;20194;-74
2022/09/08 06:50:41;;;;;;;12.02;7.63;;;;;;;19.03;100.00;95952.69;10347929;28;20745;-73
2022/09/08 06:55:44;;;;;;;12.60;6.47;;;;;;;18.81;100.00;95967.50;10341921;28;20217;-73
2022/09/08 07:00:57;;;;;;;15.00;7.47;;;;;;;18.82;100.00;95977.91;10366526;28;20306;-73
2022/09/08 07:06:05;;;;;;;8.38;7.22;;;;;;;18.79;100.00;95978.34;10366228;28;20653;-73
2022/09/08 07:11:08;;;;;;;13.00;7.78;;;;;;;18.44;100.00;95992.28;10366524;28;20372;-72
2022/09/08 07:16:17;;;;;;;12.10;7.53;;;;;;;18.30;100.00;95989.00;10348548;28;20201;-73
2022/09/08 07:21:52;;;;;;;15.57;8.80;;;;;;;18.02;100.00;96000.13;10348039;28;20182;-73
2022/09/08 07:26:57;;;;;;;15.35;9.98;;;;;;;17.64;100.00;96015.19;10348228;28;20193;-73
2022/09/08 07:31:58;;;;;;;16.65;8.85;;;;;;;17.68;100.00;96023.50;10347232;28;20317;-73
2022/09/08 07:37:08;;;;;;;17.08;9.32;;;;;;;17.72;100.00;96022.03;10365439;28;20571;-73
2022/09/08 07:42:14;;;;;;;13.27;8.30;;;;;;;17.60;100.00;96029.88;10354978;28;20736;-72
2022/09/08 07:47:26;;;;;;;13.82;9.18;;;;;;;17.45;100.00;96035.50;10366701;28;20934;-73
2022/09/08 07:52:44;;;;;;;14.00;9.27;;;;;;;17.80;100.00;96047.44;10345929;28;20647;-72
2022/09/08 07:58:16;;;;;;;14.15;10.43;;;;;;;17.56;100.00;96035.81;10367443;28;20732;-73
2022/09/08 08:03:36;;;;;;;15.15;10.15;;;;;;;17.52;100.00;96027.50;10352213;28;20235;-73
2022/09/08 08:08:59;;;;;;;12.63;9.70;;;;;;;17.56;100.00;96026.03;10369037;28;20271;-73
2022/09/08 08:14:15;;;;;;;16.23;11.73;;;;;;;17.36;100.00;96028.84;10368817;28;20243;-73
2022/09/08 08:19:40;;;;;;;15.90;12.80;;;;;;;17.42;100.00;96022.69;10350879;28;20220;-72
2022/09/08 08:24:57;;;;;;;18.17;12.45;;;;;;;17.51;100.00;96027.72;10369402;28;20273;-72
2022/09/08 08:30:06;;;;;;;19.73;16.02;;;;;;;17.10;100.00;96035.97;10350235;28;20645;-72
2022/09/08 08:35:27;;;;;;;19.02;14.98;;;;;;;17.11;100.00;96032.31;10367546;28;20225;-71
2022/09/08 08:40:32;;;;;;;20.05;15.00;;;;;;;17.25;100.00;96021.63;10349481;28;20201;-74
2022/09/08 08:46:03;;;;;;;18.15;15.38;;;;;;;17.26;100.00;96028.53;10352095;28;20713;-75
2022/09/08 08:51:23;;;;;;;24.15;21.58;;;;;;;17.46;100.00;96031.81;10369479;28;20336;-74
2022/09/08 08:56:32;;;;;;;33.85;23.20;;;;;;;17.53;100.00;96037.06;10384484;28;20244;-75
2022/09/08 09:01:43;;;;;;;30.52;23.13;;;;;;;17.55;100.00;96050.91;10368879;28;20602;-75
2022/09/08 09:06:48;;;;;;;35.17;23.75;;;;;;;17.50;100.00;96058.69;10372750;28;20681;-75
2022/09/08 09:12:20;;;;;;;27.75;20.73;;;;;;;17.48;100.00;96056.25;10351089;28;20298;-75
2022/09/08 09:24:40;;;;;;;17.85;14.13;;;;;;;17.54;100.00;96053.78;10154469;28;20599;-74
2022/09/08 09:29:41;;;;;;;21.35;14.65;;;;;;;17.47;100.00;96037.94;10243036;28;20695;-75
2022/09/08 09:35:10;;;;;;;24.00;15.80;;;;;;;17.26;100.00;96041.78;10369117;28;20237;-75
2022/09/08 09:40:29;;;;;;;25.10;16.40;;;;;;;17.13;100.00;96055.91;10364497;28;20190;-74
2022/09/08 09:45:53;;;;;;;30.63;19.77;;;;;;;17.11;100.00;96053.47;10364070;28;20517;-75
2022/09/08 09:51:15;;;;;;;25.70;19.10;;;;;;;16.96;100.00;96084.72;10317603;28;20216;-75
2022/09/08 09:56:41;;;;;;;26.65;18.70;;;;;;;16.94;100.00;96086.78;10366757;28;20232;-75
2022/09/08 10:01:56;;;;;;;28.20;18.90;;;;;;;17.01;100.00;96092.00;10364190;28;20208;-75
2022/09/08 10:07:13;;;;;;;26.05;18.88;;;;;;;17.15;100.00;96095.38;10366129;28;20200;-74
2022/09/08 10:12:25;;;;;;;23.58;17.95;;;;;;;17.16;100.00;96081.16;10363888;28;20219;-74
2022/09/08 10:17:48;;;;;;;29.30;19.83;;;;;;;16.98;100.00;96072.06;10364691;28;20608;-74
2022/09/08 10:23:09;;;;;;;31.55;22.23;;;;;;;16.88;100.00;96072.53;10346277;28;20267;-74
2022/09/08 10:29:02;;;;;;;37.60;24.75;;;;;;;16.73;100.00;96075.44;10361177;28;20268;-72
2022/09/08 10:34:27;;;;;;;30.80;23.00;;;;;;;17.01;100.00;96089.38;10319329;28;20651;-74
2022/09/08 10:39:39;;;;;;;28.27;20.08;;;;;;;17.25;100.00;96083.31;10369050;28;20189;-74
2022/09/08 10:44:43;;;;;;;14.02;12.55;;;;;;;17.16;100.00;96075.84;10346135;28;20190;-74
2022/09/08 10:50:15;;;;;;;10.20;9.07;;;;;;;16.96;100.00;96057.44;10367266;28;20189;-74
2022/09/08 10:55:47;;;;;;;12.90;8.43;;;;;;;17.01;100.00;96058.41;10344622;28;20225;-73
2022/09/08 11:01:25;;;;;;;9.57;7.25;;;;;;;16.93;100.00;96061.31;10345721;28;20718;-74
2022/09/08 11:06:48;;;;;;;9.75;7.03;;;;;;;16.95;100.00;96059.28;10257008;28;20297;-74
2022/09/08 11:12:07;;;;;;;12.80;8.10;;;;;;;16.75;100.00;96067.28;10324050;28;20222;-74
2022/09/08 11:17:12;;;;;;;14.02;10.25;;;;;;;16.71;100.00;96080.13;10365435;28;20228;-75
2022/09/08 11:22:34;;;;;;;8.30;5.50;;;;;;;15.97;100.00;96079.56;10395394;28;20166;-76
2022/09/08 11:27:40;;;;;;;5.72;4.03;;;;;;;15.88;100.00;96051.75;10375377;28;20201;-74
2022/09/08 11:32:51;;;;;;;7.88;4.55;;;;;;;15.96;100.00;96056.81;10355888;28;20699;-75
2022/09/08 11:37:55;;;;;;;5.35;4.95;;;;;;;16.17;100.00;96068.13;10353839;28;20244;-74
2022/09/08 11:43:33;;;;;;;5.05;4.47;;;;;;;16.41;100.00;96064.78;10372464;28;20291;-76
2022/09/08 11:49:05;;;;;;;4.15;3.75;;;;;;;16.50;100.00;96059.28;10344117;28;20630;-73
2022/09/08 11:54:17;;;;;;;3.90;3.22;;;;;;;16.61;100.00;96065.75;10367922;28;20309;-75
2022/09/08 11:59:56;;;;;;;4.45;3.65;;;;;;;16.69;100.00;96061.03;10366954;28;20236;-75
2022/09/08 12:05:18;;;;;;;2.53;2.20;;;;;;;16.65;100.00;96057.16;10396141;28;20584;-75
2022/09/08 12:10:28;;;;;;;2.08;1.98;;;;;;;16.47;100.00;96047.28;10377378;28;20193;-75
2022/09/08 12:15:55;;;;;;;2.42;1.80;;;;;;;16.36;100.00;96040.81;10372417;28;20264;-75
2022/09/08 12:21:37;;;;;;;2.10;1.67;;;;;;;16.28;100.00;96022.56;10364136;28;20645;-73
2022/09/08 12:26:52;;;;;;;2.83;1.08;;;;;;;16.14;100.00;96008.59;10351913;28;20186;-76
2022/09/08 12:32:19;;;;;;;0.98;0.90;;;;;;;16.19;100.00;96000.03;10351512;28;20355;-75
2022/09/08 12:37:44;;;;;;;1.08;0.93;;;;;;;16.08;100.00;95998.03;10353025;28;20217;-76
2022/09/08 12:42:53;;;;;;;1.20;1.05;;;;;;;16.15;100.00;96012.84;10368759;28;20281;-76
2022/09/08 12:48:01;;;;;;;1.17;0.88;;;;;;;16.13;100.00;96006.16;10334917;28;20566;-75
2022/09/08 12:53:39;;;;;;;1.45;1.00;;;;;;;16.09;100.00;96007.59;10367840;28;20249;-75
2022/09/08 12:58:43;;;;;;;2.05;1.10;;;;;;;16.43;100.00;96014.34;10367498;28;20436;-75
2022/09/08 13:03:46;;;;;;;1.45;1.00;;;;;;;16.73;100.00;96011.94;10355786;28;20198;-75
2022/09/08 13:09:21;;;;;;;0.75;0.75;;;;;;;16.84;100.00;95997.22;10343070;28;20729;-75
2022/09/08 13:21:47;;;;;;;0.73;0.73;;;;;;;16.83;100.00;95994.81;10353005;28;20665;-75
2022/09/08 13:26:53;;;;;;;0.70;0.70;;;;;;;17.02;100.00;95999.19;10278357;28;20205;-75
2022/09/08 13:32:07;;;;;;;1.00;0.65;;;;;;;17.32;100.00;95987.13;10307882;28;20228;-75
2022/09/08 13:37:37;;;;;;;2.10;1.90;;;;;;;18.16;100.00;95991.00;10342183;28;20217;-74
2022/09/08 13:42:51;;;;;;;0.75;0.63;;;;;;;18.31;100.00;95989.81;10361454;28;20190;-74
2022/09/08 13:48:09;;;;;;;1.10;0.50;;;;;;;18.38;100.00;95990.53;10381332;28;20276;-74
2022/09/08 13:53:34;;;;;;;0.50;0.50;;;;;;;18.95;100.00;95981.44;10375341;28;20295;-74
2022/09/08 13:58:46;;;;;;;0.88;0.57;;;;;;;18.96;100.00;95967.09;10353345;28;20979;-73
2022/09/08 14:03:51;;;;;;;1.70;0.98;;;;;;;18.47;100.00;95988.41;10399898;28;20196;-74
2022/09/08 14:08:59;;;;;;;0.70;0.70;;;;;;;18.53;100.00;95979.53;10372725;28;20205;-73
2022/09/08 14:14:14;;;;;;;2.67;0.68;;;;;;;18.07;100.00;95983.56;10363012;28;20668;-73
2022/09/08 14:19:42;;;;;;;0.90;0.70;;;;;;;18.48;100.00;95984.69;10361443;28;20627;-73
2022/09/08 14:24:58;;;;;;;0.75;0.60;;;;;;;18.61;100.00;95983.72;10363708;28;20190;-72
2022/09/08 14:30:13;;;;;;;1.42;0.50;;;;;;;19.12;100.00;95974.41;10360156;28;20189;-73
2022/09/08 14:35:30;;;;;;;0.50;0.50;;;;;;;18.97;100.00;95958.91;10359859;28;20229;-73
2022/09/08 14:40:56;;;;;;;1.73;0.70;;;;;;;18.64;100.00;95970.00;10357757;28;20256;-74
2022/09/08 14:46:13;;;;;;;2.35;0.70;;;;;;;18.29;100.00;96002.50;10326896;28;20202;-74
2022/09/08 14:51:24;;;;;;;1.55;0.60;;;;;;;20.11;92.51;95957.75;10341227;28;20441;-74
2022/09/08 14:56:28;;;;;;;1.15;0.70;;;;;;;18.93;94.49;95975.50;10349878;28;20264;-73
2022/09/08 15:01:32;;;;;;;1.30;0.73;;;;;;;18.93;98.45;95980.81;10368525;28;20281;-73
2022/09/08 15:06:37;;;;;;;0.82;0.65;;;;;;;18.59;100.00;96001.69;10369177;28;20216;-73
2022/09/08 15:11:38;;;;;;;1.38;0.80;;;;;;;18.47;100.00;95999.81;10367458;28;20240;-73
2022/09/08 15:16:56;;;;;;;0.98;0.77;;;;;;;17.67;100.00;96005.97;10352170;28;20208;-73
2022/09/08 15:21:57;;;;;;;0.77;0.77;;;;;;;17.37;100.00;96022.53;10350483;28;20193;-74
2022/09/08 15:27:02;;;;;;;1.00;0.90;;;;;;;17.53;100.00;96030.97;10367501;28;20197;-73
2022/09/08 15:32:15;;;;;;;0.60;0.60;;;;;;;17.62;100.00;96022.50;10349942;28;20244;-72
2022/09/08 15:37:35;;;;;;;2.92;0.82;;;;;;;17.41;100.00;96034.31;10350970;28;20355;-73
2022/09/08 15:43:08;;;;;;;1.10;0.70;;;;;;;17.16;100.00;96007.03;10351216;28;20689;-73
2022/09/08 15:48:39;;;;;;;3.13;0.60;;;;;;;17.18;100.00;96004.97;10368049;28;20193;-73
2022/09/08 15:53:54;;;;;;;4.50;1.10;;;;;;;17.13;100.00;96018.84;10367784;28;20228;-73
2022/09/08 15:59:13;;;;;;;1.25;0.80;;;;;;;17.17;100.00;96016.59;10363245;28;20236;-74
2022/09/08 16:04:20;;;;;;;0.70;0.70;;;;;;;17.23;100.00;96026.31;10365690;28;20225;-73
2022/09/08 16:09:22;;;;;;;2.90;0.80;;;;;;;17.21;100.00;96025.72;10368231;28;20660;-73
2022/09/08 16:14:38;;;;;;;1.20;0.98;;;;;;;17.05;100.00;96030.50;10351099;28;20241;-73
2022/09/08 16:19:39;;;;;;;1.02;0.90;;;;;;;17.70;100.00;96023.25;10351986;28;20193;-73
2022/09/08 16:24:49;;;;;;;2.33;0.73;;;;;;;18.52;98.42;95999.13;10350126;28;20189;-73
2022/09/08 16:29:52;;;;;;;0.68;0.68;;;;;;;18.80;97.19;95998.53;10368269;28;20712;-73
2022/09/08 16:34:52;;;;;;;2.70;0.80;;;;;;;17.54;100.00;96032.59;10366828;28;20221;-73
2022/09/08 16:40:16;;;;;;;1.77;0.90;;;;;;;17.02;100.00;96057.41;10367940;28;20194;-74
2022/09/08 16:45:35;;;;;;;7.80;4.13;;;;;;;17.01;100.00;96057.63;10365556;28;20201;-73
2022/09/08 16:50:40;;;;;;;3.97;2.17;;;;;;;17.24;100.00;96038.53;10366819;28;20201;-73
2022/09/08 16:56:03;;;;;;;13.02;5.75;;;;;;;16.85;100.00;96057.06;10350416;28;20308;-73
2022/09/08 17:01:26;;;;;;;20.67;10.07;;;;;;;16.74;100.00;96066.47;10351936;28;20205;-74
2022/09/08 17:06:45;;;;;;;95.13;35.40;;;;;;;16.68;100.00;96069.19;10348369;28;20551;-73
2022/09/08 17:11:59;;;;;;;1.05;0.95;;;;;;;16.28;100.00;96067.50;10366273;28;20583;-73
2022/09/08 17:17:41;;;;;;;3.90;2.92;;;;;;;15.75;100.00;96084.22;10346324;28;20201;-72
2022/09/08 17:23:00;;;;;;;1.10;1.00;;;;;;;15.38;100.00;96088.31;10353441;28;20759;-73
2022/09/08 17:28:13;;;;;;;1.73;1.60;;;;;;;15.13;100.00;96100.25;10365295;28;20185;-73
2022/09/08 17:33:14;;;;;;;2.00;1.70;;;;;;;15.09;100.00;96096.38;10367465;28;20559;-73
2022/09/08 17:38:33;;;;;;;2.10;2.00;;;;;;;15.00;100.00;96097.56;10365941;28;20232;-72
2022/09/08 17:44:25;;;;;;;1.98;1.50;;;;;;;14.82;100.00;96111.31;10368372;28;20200;-73
2022/09/08 17:49:34;;;;;;;6.75;5.05;;;;;;;14.72;100.00;96118.81;10332334;28;20275;-73
2022/09/08 17:54:40;;;;;;;9.25;4.88;;;;;;;14.60;100.00;96116.72;10349481;28;20280;-73
2022/09/08 17:59:53;;;;;;;4.85;1.33;;;;;;;14.54;100.00;96114.81;10367389;28;20728;-73
2022/09/08 18:05:11;;;;;;;60.53;21.27;;;;;;;14.42;100.00;96129.56;10367315;28;20200;-72
2022/09/08 18:10:49;;;;;;;5.18;3.42;;;;;;;14.31;100.00;96143.31;10365117;28;20311;-73
2022/09/08 18:16:09;;;;;;;2.45;1.70;;;;;;;14.41;100.00;96157.75;10365583;28;20225;-73
2022/09/08 18:21:46;;;;;;;7.43;2.65;;;;;;;14.31;100.00;96161.75;10347646;28;20712;-72
2022/09/08 18:26:57;;;;;;;2.42;2.08;;;;;;;14.15;100.00;96170.75;10364711;28;20228;-73
2022/09/08 18:32:26;;;;;;;2.38;2.17;;;;;;;14.15;100.00;96173.38;10366442;28;20255;-73
2022/09/08 18:37:26;;;;;;;3.47;2.10;;;;;;;14.19;100.00;96172.00;10365126;28;20573;-72
2022/09/08 18:42:49;;;;;;;4.38;2.00;;;;;;;14.11;100.00;96178.22;10365843;28;20182;-72
2022/09/08 18:48:14;;;;;;;1.75;1.60;;;;;;;14.07;100.00;96176.97;10348197;28;20255;-73
2022/09/08 18:53:28;;;;;;;1.85;1.60;;;;;;;13.98;100.00;96186.84;10366037;28;20717;-73
2022/09/08 18:58:43;;;;;;;4.72;1.92;;;;;;;13.96;100.00;96203.84;10365464;28;20264;-73
2022/09/08 19:03:58;;;;;;;5.05;1.80;;;;;;;13.97;100.00;96210.75;10365873;28;20237;-73
2022/09/08 19:09:27;;;;;;;2.95;1.77;;;;;;;13.96;100.00;96212.53;10364922;28;20593;-72
2022/09/08 19:14:38;;;;;;;3.92;1.50;;;;;;;14.00;100.00;96207.75;10347860;28;20694;-73
2022/09/08 19:19:40;;;;;;;7.85;1.80;;;;;;;13.92;100.00;96211.31;10347964;28;20192;-72
2022/09/08 19:25:00;;;;;;;2.30;1.80;;;;;;;13.87;100.00;96214.53;10347507;28;20615;-73
2022/09/08 19:30:01;;;;;;;1.80;1.70;;;;;;;13.97;100.00;96216.81;10347461;28;20245;-72
2022/09/08 19:35:14;;;;;;;3.10;1.60;;;;;;;13.93;100.00;96218.19;10367917;28;20224;-72
2022/09/08 19:40:40;;;;;;;3.63;1.50;;;;;;;13.97;100.00;96218.66;10369881;28;20229;-72
2022/09/08 19:45:55;;;;;;;1.70;1.48;;;;;;;13.90;100.00;96223.84;10351379;28;20555;-73
2022/09/08 19:51:11;;;;;;;5.20;2.03;;;;;;;13.91;100.00;96228.13;10378745;28;20534;-73
2022/09/08 19:56:36;;;;;;;4.70;1.50;;;;;;;13.89;100.00;96217.78;10390414;28;20731;-72
2022/09/08 20:01:52;;;;;;;2.45;1.52;;;;;;;13.80;100.00;96220.69;10362306;28;20653;-72
2022/09/08 20:07:07;;;;;;;1.52;1.42;;;;;;;13.76;100.00;96227.38;10386767;28;20719;-72
2022/09/08 20:12:11;;;;;;;5.05;1.42;;;;;;;13.74;100.00;96219.66;10354266;28;20711;-72
2022/09/08 20:17:19;;;;;;;1.77;1.55;;;;;;;13.70;100.00;96223.66;10370410;28;20209;-73
2022/09/08 20:23:01;;;;;;;2.45;1.33;;;;;;;13.61;100.00;96230.06;10370209;28;20200;-73
2022/09/08 20:28:35;;;;;;;4.40;1.63;;;;;;;13.56;100.00;96233.25;10371934;28;20197;-73
2022/09/08 20:33:41;;;;;;;1.70;1.48;;;;;;;13.66;100.00;96238.19;10353967;28;20765;-73
2022/09/08 20:39:16;;;;;;;3.53;1.25;;;;;;;13.72;100.00;96237.44;10370596;28;20557;-73
2022/09/08 20:44:25;;;;;;;2.65;1.33;;;;;;;13.70;100.00;96239.47;10353532;28;20699;-73
2022/09/08 20:49:49;;;;;;;4.00;1.40;;;;;;;13.61;100.00;96241.38;10370343;28;20244;-73
2022/09/08 20:55:15;;;;;;;2.65;1.20;;;;;;;13.59;100.00;96243.41;10353024;28;20229;-73
2022/09/08 21:00:27;;;;;;;4.72;1.20;;;;;;;13.42;100.00;96248.09;10370053;28;20252;-73
2022/09/08 21:05:30;;;;;;;2.15;1.30;;;;;;;13.40;100.00;96252.72;10352868;28;20198;-73
2022/09/08 21:10:38;;;;;;;2.80;1.30;;;;;;;13.32;100.00;96240.47;10385559;28;20204;-72
2022/09/08 21:15:38;;;;;;;1.58;1.48;;;;;;;13.14;100.00;96245.28;10369710;28;20700;-73
2022/09/08 21:20:51;;;;;;;3.70;1.35;;;;;;;13.22;100.00;96249.66;10369821;28;20268;-73
2022/09/08 21:26:00;;;;;;;2.13;1.30;;;;;;;13.12;100.00;96248.09;10352660;28;20264;-73
2022/09/08 21:31:15;;;;;;;1.75;1.17;;;;;;;13.05;100.00;96246.41;10369328;28;20185;-73
2022/09/08 21:36:29;;;;;;;1.48;1.27;;;;;;;12.98;100.00;96247.13;10352299;28;20232;-73
2022/09/08 21:41:35;;;;;;;1.10;1.10;;;;;;;12.91;100.00;96237.53;10351219;28;20307;-73
2022/09/08 21:46:45;;;;;;;2.45;1.30;;;;;;;12.78;100.00;96251.31;10369052;28;20220;-73
2022/09/08 21:51:54;;;;;;;4.88;1.40;;;;;;;12.78;100.00;96253.94;10368640;28;20221;-73
2022/09/08 21:57:06;;;;;;;1.52;1.00;;;;;;;12.79;100.00;96248.50;10369010;28;20225;-72
2022/09/08 22:02:13;;;;;;;4.75;1.27;;;;;;;12.80;100.00;96249.31;10368169;28;20209;-73
2022/09/08 22:07:32;;;;;;;1.30;1.20;;;;;;;12.68;100.00;96256.84;10368389;28;20214;-73
2022/09/08 22:12:33;;;;;;;3.58;1.40;;;;;;;12.68;100.00;96248.97;10365835;28;20216;-73
2022/09/08 22:17:59;;;;;;;1.92;1.70;;;;;;;12.64;100.00;96255.59;10350032;28;20213;-72
2022/09/08 22:23:21;;;;;;;2.80;1.00;;;;;;;12.77;100.00;96268.09;10360943;28;20212;-72
2022/09/08 22:28:43;;;;;;;5.97;2.67;;;;;;;12.71;100.00;96258.28;10367589;28;20192;-72
2022/09/08 22:34:17;;;;;;;2.83;1.10;;;;;;;12.61;100.00;96267.25;10350124;28;20221;-73
2022/09/08 22:39:35;;;;;;;1.58;1.20;;;;;;;12.57;100.00;96260.75;10338017;28;20296;-72
2022/09/08 22:44:38;;;;;;;1.10;1.00;;;;;;;12.60;100.00;96265.66;10350149;28;20435;-73
2022/09/08 22:49:43;;;;;;;1.98;1.17;;;;;;;12.61;100.00;96258.56;10348980;28;20227;-72
2022/09/08 22:54:48;;;;;;;4.53;1.30;;;;;;;12.65;100.00;96260.66;10367299;28;20279;-73
2022/09/08 22:59:51;;;;;;;3.95;1.45;;;;;;;12.59;100.00;96256.13;10349529;28;20728;-73
2022/09/08 23:04:56;;;;;;;4.22;1.75;;;;;;;12.39;100.00;96270.75;10349185;28;20221;-73
2022/09/08 23:10:17;;;;;;;5.68;1.20;;;;;;;12.40;100.00;96270.59;10352762;28;20197;-73
2022/09/08 23:15:34;;;;;;;4.47;1.23;;;;;;;12.32;100.00;96278.53;10374445;28;20312;-72
2022/09/08 23:20:51;;;;;;;4.57;1.40;;;;;;;12.32;100.00;96266.22;10377679;28;20281;-73
2022/09/08 23:25:53;;;;;;;3.42;1.30;;;;;;;12.37;100.00;96276.19;10374043;28;20561;-73
2022/09/08 23:31:01;;;;;;;1.30;1.20;;;;;;;12.41;100.00;96272.22;10356425;28;20188;-73
2022/09/08 23:36:16;;;;;;;2.70;1.23;;;;;;;12.54;100.00;96268.16;10373755;28;20225;-73
2022/09/08 23:41:17;;;;;;;2.88;1.23;;;;;;;12.54;100.00;96263.75;10372381;28;20186;-73
2022/09/08 23:46:31;;;;;;;2.90;1.50;;;;;;;12.49;100.00;96264.25;10373261;28;20650;-73
2022/09/08 23:51:47;;;;;;;1.48;1.25;;;;;;;12.35;100.00;96266.88;10356056;28;20192;-73
2022/09/08 23:56:52;;;;;;;3.10;1.50;;;;;;;12.27;100.00;96265.94;10355171;28;20236;-73
